Time;durP1;ratioP1;P1;durP2;ratioP2;P2;SDS_P1;SDS_P2;PMS_P1;PMS_P2;Temp;Humidity;BMP_temperature;BMP_pressure;BME280_temperature;BME280_humidity;BME280_pressure;Samples;Min_cycle;Max_cycle;Signal;HPM_P1;HPM_P2
2021/01/25 00:01:06;;;;;;;6.37;5.07;;;1.70;99.90;;;;;;5094609;28;20457;-77
2021/01/25 00:03:33;;;;;;;8.70;5.20;;;1.60;99.90;;;;;;5095212;28;20546;-77
2021/01/25 00:06:00;;;;;;;11.82;5.70;;;1.50;99.90;;;;;;5094640;28;20439;-77
2021/01/25 00:08:26;;;;;;;9.05;5.32;;;1.50;99.90;;;;;;5095647;28;20208;-77
2021/01/25 00:10:53;;;;;;;8.82;5.82;;;1.50;99.90;;;;;;5094727;28;20657;-77
2021/01/25 00:13:19;;;;;;;10.02;5.32;;;1.50;99.90;;;;;;5094558;28;20654;-77
2021/01/25 00:15:47;;;;;;;8.45;5.10;;;1.50;99.90;;;;;;5094711;28;20204;-77
2021/01/25 00:18:14;;;;;;;10.98;5.75;;;1.50;99.90;;;;;;5094629;28;20219;-77
2021/01/25 00:20:40;;;;;;;8.48;5.30;;;1.50;99.90;;;;;;5094970;28;20688;-77
2021/01/25 00:23:07;;;;;;;8.40;5.83;;;1.50;99.90;;;;;;5094046;28;20208;-77
2021/01/25 00:25:34;;;;;;;8.35;4.82;;;1.50;99.90;;;;;;5094340;28;20501;-77
2021/01/25 00:28:00;;;;;;;7.20;4.95;;;1.60;99.90;;;;;;5093740;28;20207;-78
2021/01/25 00:30:27;;;;;;;8.30;5.77;;;1.50;99.90;;;;;;5093908;28;20201;-77
2021/01/25 00:32:53;;;;;;;5.60;4.63;;;1.50;99.90;;;;;;5093848;28;20494;-84
2021/01/25 00:35:19;;;;;;;9.07;5.70;;;1.50;99.90;;;;;;5094247;28;20613;-78
2021/01/25 00:37:46;;;;;;;8.82;5.35;;;1.60;99.90;;;;;;5093870;28;20705;-77
2021/01/25 00:40:14;;;;;;;12.75;5.38;;;1.50;99.90;;;;;;5093888;28;20524;-77
2021/01/25 00:42:41;;;;;;;7.88;5.07;;;1.50;99.90;;;;;;5093852;28;20530;-77
2021/01/25 00:45:08;;;;;;;8.82;4.85;;;1.60;99.90;;;;;;5093625;28;20209;-77
2021/01/25 00:47:34;;;;;;;9.13;5.50;;;1.60;99.90;;;;;;5094515;28;20207;-77
2021/01/25 00:50:01;;;;;;;12.00;4.70;;;1.70;99.90;;;;;;5093674;28;20231;-77
2021/01/25 00:52:28;;;;;;;7.07;5.53;;;1.60;99.90;;;;;;5093700;28;20196;-77
2021/01/25 00:54:54;;;;;;;11.27;4.95;;;1.70;99.90;;;;;;5093622;28;20228;-85
2021/01/25 00:57:21;;;;;;;8.93;4.65;;;1.70;99.90;;;;;;5093827;28;20566;-77
2021/01/25 00:59:48;;;;;;;7.90;5.70;;;1.70;99.90;;;;;;5093990;28;20204;-77
2021/01/25 01:02:14;;;;;;;8.83;5.13;;;1.70;99.90;;;;;;5093812;28;20588;-77
2021/01/25 01:04:40;;;;;;;7.53;4.80;;;1.80;99.90;;;;;;5094092;28;20441;-77
2021/01/25 01:07:06;;;;;;;7.88;5.53;;;1.70;99.90;;;;;;5093650;28;20654;-77
2021/01/25 01:09:33;;;;;;;10.27;4.88;;;1.80;99.90;;;;;;5097813;28;20214;-77
2021/01/25 01:11:59;;;;;;;8.05;5.30;;;1.80;99.90;;;;;;5097208;28;20294;-77
2021/01/25 01:14:27;;;;;;;8.40;5.77;;;1.80;99.90;;;;;;5098438;28;20211;-77
2021/01/25 01:16:53;;;;;;;12.48;5.47;;;1.90;99.90;;;;;;5097308;28;20452;-80
2021/01/25 01:19:19;;;;;;;8.90;5.63;;;1.90;99.90;;;;;;5097171;28;20604;-77
2021/01/25 01:21:46;;;;;;;7.93;5.82;;;1.90;99.90;;;;;;5097810;28;20740;-77
2021/01/25 01:24:13;;;;;;;7.50;5.00;;;2.00;99.90;;;;;;5097091;28;20196;-77
2021/01/25 01:26:39;;;;;;;7.70;5.68;;;2.00;99.90;;;;;;5097598;28;20789;-77
2021/01/25 01:29:05;;;;;;;10.23;6.33;;;2.00;99.90;;;;;;5097461;28;20207;-77
2021/01/25 01:31:33;;;;;;;7.30;4.90;;;1.90;99.90;;;;;;5097221;28;20442;-77
2021/01/25 01:33:59;;;;;;;7.50;5.93;;;2.00;99.90;;;;;;5096843;28;20447;-77
2021/01/25 01:36:25;;;;;;;7.97;5.80;;;2.00;99.90;;;;;;5097078;28;20450;-77
2021/01/25 01:38:51;;;;;;;7.90;5.43;;;2.00;99.90;;;;;;5097532;28;20496;-77
2021/01/25 01:41:18;;;;;;;7.18;5.35;;;2.10;99.90;;;;;;5096970;28;21107;-77
2021/01/25 01:43:44;;;;;;;8.65;6.53;;;2.10;99.90;;;;;;5097103;28;20627;-77
2021/01/25 01:46:11;;;;;;;8.10;5.68;;;1.90;99.90;;;;;;5096674;28;20202;-77
2021/01/25 01:48:38;;;;;;;8.97;5.10;;;1.90;99.90;;;;;;5096714;28;20213;-77
2021/01/25 01:51:05;;;;;;;9.00;5.32;;;2.00;99.90;;;;;;5096688;28;20567;-77
2021/01/25 01:53:32;;;;;;;8.50;5.28;;;2.00;99.90;;;;;;5097049;28;20221;-77
2021/01/25 01:55:59;;;;;;;7.60;4.40;;;2.00;99.90;;;;;;5096631;28;20283;-86
2021/01/25 01:58:28;;;;;;;5.20;4.07;;;2.10;99.90;;;;;;5097073;28;20493;-77
2021/01/25 02:00:54;;;;;;;7.32;4.40;;;2.10;99.90;;;;;;5096941;28;20465;-77
2021/01/25 02:03:21;;;;;;;6.45;3.70;;;2.10;99.90;;;;;;5096560;28;20631;-77
2021/01/25 02:05:48;;;;;;;6.72;4.00;;;2.10;99.90;;;;;;5096422;28;20203;-77
2021/01/25 02:08:15;;;;;;;7.40;4.15;;;2.10;99.90;;;;;;5096094;28;20218;-77
2021/01/25 02:10:41;;;;;;;5.63;3.23;;;2.10;99.90;;;;;;5096303;28;20242;-77
2021/01/25 02:13:09;;;;;;;5.20;3.53;;;2.10;99.90;;;;;;5095797;28;20430;-77
2021/01/25 02:15:36;;;;;;;4.73;3.40;;;2.10;99.90;;;;;;5096590;28;20817;-77
2021/01/25 02:18:03;;;;;;;6.25;3.30;;;2.20;99.90;;;;;;5096327;28;20456;-77
2021/01/25 02:20:33;;;;;;;5.13;2.95;;;2.30;99.90;;;;;;5095544;28;20196;-77
2021/01/25 02:23:32;;;;;;;6.43;3.33;;;2.30;99.90;;;;;;5095946;28;20200;-84
2021/01/25 02:26:07;;;;;;;3.67;2.90;;;2.20;99.90;;;;;;5096096;28;20223;-79
2021/01/25 02:28:36;;;;;;;6.22;3.55;;;2.30;99.90;;;;;;5096604;28;20501;-77
2021/01/25 02:31:06;;;;;;;3.60;2.70;;;2.30;99.90;;;;;;5095620;28;20212;-77
2021/01/25 02:33:35;;;;;;;7.40;4.13;;;2.30;99.90;;;;;;5096091;28;20458;-77
2021/01/25 02:36:02;;;;;;;5.72;3.53;;;2.20;99.90;;;;;;5095807;28;20438;-84
2021/01/25 02:38:29;;;;;;;5.60;3.25;;;2.20;99.90;;;;;;5095927;28;20231;-77
2021/01/25 02:40:58;;;;;;;5.53;3.17;;;2.20;99.90;;;;;;5089615;28;20214;-81
2021/01/25 02:43:25;;;;;;;7.25;3.13;;;2.20;99.90;;;;;;5075549;28;20439;-77
2021/01/25 02:45:53;;;;;;;6.30;3.13;;;2.20;99.90;;;;;;5075205;28;20204;-77
2021/01/25 02:48:19;;;;;;;5.50;3.60;;;2.20;99.90;;;;;;5075070;28;20465;-77
2021/01/25 02:50:50;;;;;;;6.07;3.80;;;2.10;99.90;;;;;;5075173;28;20469;-77
2021/01/25 02:53:16;;;;;;;6.82;3.45;;;2.10;99.90;;;;;;5074872;28;20670;-75
2021/01/25 02:55:43;;;;;;;6.90;3.43;;;2.10;99.90;;;;;;5075223;28;20306;-76
2021/01/25 02:58:10;;;;;;;6.43;3.23;;;2.10;99.90;;;;;;5074958;28;20489;-76
2021/01/25 03:00:37;;;;;;;5.50;2.95;;;2.10;99.90;;;;;;5074936;28;20465;-76
2021/01/25 03:03:05;;;;;;;5.13;3.42;;;2.00;99.90;;;;;;5075341;28;20219;-76
2021/01/25 03:05:31;;;;;;;6.50;3.20;;;2.10;99.90;;;;;;5080155;28;20279;-75
2021/01/25 03:07:58;;;;;;;4.87;3.37;;;2.00;99.90;;;;;;5095488;28;20536;-75
2021/01/25 03:10:24;;;;;;;5.30;3.10;;;2.00;99.90;;;;;;5094848;28;20533;-78
2021/01/25 03:12:52;;;;;;;7.93;3.20;;;2.10;99.90;;;;;;5095267;28;20502;-76
2021/01/25 03:15:19;;;;;;;5.60;3.50;;;2.10;99.90;;;;;;5094964;28;20273;-82
2021/01/25 03:17:46;;;;;;;10.50;4.47;;;2.20;99.90;;;;;;5095129;28;20478;-75
2021/01/25 03:20:13;;;;;;;4.10;2.80;;;2.10;99.90;;;;;;5094735;28;20449;-76
2021/01/25 03:22:39;;;;;;;5.22;3.42;;;2.10;99.90;;;;;;5095061;28;20464;-75
2021/01/25 03:25:07;;;;;;;5.07;3.33;;;2.00;99.90;;;;;;5095052;28;20299;-76
2021/01/25 03:27:33;;;;;;;6.23;3.47;;;2.00;99.90;;;;;;5095600;28;20453;-76
2021/01/25 03:30:00;;;;;;;4.75;2.92;;;2.00;99.90;;;;;;5095041;28;21024;-78
2021/01/25 03:32:26;;;;;;;3.63;2.88;;;1.90;99.90;;;;;;5094511;28;20290;-76
2021/01/25 03:34:52;;;;;;;4.50;3.00;;;2.00;99.90;;;;;;5095471;28;20547;-75
2021/01/25 03:37:19;;;;;;;3.47;2.40;;;2.10;99.90;;;;;;5095141;28;20270;-75
2021/01/25 03:39:46;;;;;;;4.57;3.05;;;2.10;99.90;;;;;;5095089;28;20212;-76
2021/01/25 03:42:12;;;;;;;6.80;3.50;;;2.10;99.90;;;;;;5079476;28;20226;-76
2021/01/25 03:44:38;;;;;;;6.38;3.60;;;2.10;99.90;;;;;;5074708;28;20420;-76
2021/01/25 03:47:05;;;;;;;6.25;3.75;;;2.10;99.90;;;;;;5081122;28;20198;-77
2021/01/25 03:49:31;;;;;;;5.72;3.88;;;2.00;99.90;;;;;;5095225;28;20262;-75
2021/01/25 03:51:57;;;;;;;6.10;3.20;;;2.10;99.90;;;;;;5094690;28;20704;-76
2021/01/25 03:54:24;;;;;;;4.97;2.90;;;2.00;99.90;;;;;;5094915;28;20424;-76
2021/01/25 03:56:51;;;;;;;4.80;2.83;;;2.00;99.90;;;;;;5095093;28;20235;-76
2021/01/25 03:59:17;;;;;;;4.37;2.57;;;2.00;99.90;;;;;;5094602;28;20578;-76
2021/01/25 04:01:44;;;;;;;4.50;3.30;;;2.00;99.90;;;;;;5094356;28;20427;-76
2021/01/25 04:04:10;;;;;;;6.05;3.65;;;1.90;99.90;;;;;;5094562;28;20496;-76
2021/01/25 04:06:36;;;;;;;5.97;3.35;;;1.90;99.90;;;;;;5094295;28;20203;-76
2021/01/25 04:09:04;;;;;;;7.70;3.50;;;1.90;99.90;;;;;;5094620;28;20203;-81
2021/01/25 04:11:32;;;;;;;4.43;3.10;;;1.90;99.90;;;;;;5094189;28;20207;-77
2021/01/25 04:13:58;;;;;;;5.97;3.53;;;1.80;99.90;;;;;;5094255;28;20509;-79
2021/01/25 04:16:24;;;;;;;4.93;3.08;;;1.80;99.90;;;;;;5093845;28;20200;-76
2021/01/25 04:18:51;;;;;;;7.95;4.45;;;1.80;99.90;;;;;;5093773;28;20685;-76
2021/01/25 04:21:18;;;;;;;5.47;3.63;;;1.80;99.90;;;;;;5094341;28;20221;-76
2021/01/25 04:23:44;;;;;;;6.40;3.87;;;1.70;99.90;;;;;;5095250;28;20989;-76
2021/01/25 04:26:10;;;;;;;5.78;3.67;;;1.60;99.90;;;;;;5094005;28;20485;-76
2021/01/25 04:28:38;;;;;;;5.47;3.92;;;1.60;99.90;;;;;;5094346;28;20651;-76
2021/01/25 04:31:04;;;;;;;5.80;3.60;;;1.60;99.90;;;;;;5094035;28;20558;-78
2021/01/25 04:33:30;;;;;;;5.43;3.63;;;1.50;99.90;;;;;;5094205;28;20229;-76
2021/01/25 04:35:57;;;;;;;7.40;4.35;;;1.50;99.90;;;;;;5093907;28;20200;-76
2021/01/25 04:38:23;;;;;;;5.97;4.38;;;1.50;99.90;;;;;;5093930;28;20223;-76
2021/01/25 04:40:49;;;;;;;6.45;4.32;;;1.50;99.90;;;;;;5093874;28;20556;-76
2021/01/25 04:43:18;;;;;;;7.68;5.57;;;1.50;99.90;;;;;;5077522;28;20212;-76
2021/01/25 04:45:45;;;;;;;9.77;5.30;;;1.50;99.90;;;;;;5077449;28;20211;-76
2021/01/25 04:48:13;;;;;;;5.75;3.90;;;1.50;99.90;;;;;;5078003;28;20425;-76
2021/01/25 04:50:40;;;;;;;6.45;5.38;;;1.40;99.90;;;;;;5080091;28;20534;-77
2021/01/25 04:53:06;;;;;;;8.07;5.70;;;1.40;99.90;;;;;;5085626;28;20283;-84
2021/01/25 04:55:33;;;;;;;8.30;5.90;;;1.40;99.90;;;;;;5085732;28;20243;-76
2021/01/25 04:58:02;;;;;;;8.68;6.30;;;1.30;99.90;;;;;;5077498;28;20294;-76
2021/01/25 05:00:28;;;;;;;10.20;5.60;;;1.30;99.90;;;;;;5077033;28;20205;-77
2021/01/25 05:02:55;;;;;;;9.30;5.10;;;1.30;99.90;;;;;;5077762;28;20206;-76
2021/01/25 05:05:22;;;;;;;11.50;6.10;;;1.30;99.90;;;;;;5077296;28;20226;-76
2021/01/25 05:07:48;;;;;;;8.07;5.55;;;1.30;99.90;;;;;;5077436;28;20240;-76
2021/01/25 05:10:14;;;;;;;6.50;5.43;;;1.30;99.90;;;;;;5077269;28;20295;-76
2021/01/25 05:12:42;;;;;;;11.93;6.80;;;1.40;99.90;;;;;;5077739;28;20201;-76
2021/01/25 05:15:10;;;;;;;8.73;5.25;;;1.40;99.90;;;;;;5084310;28;20197;-76
2021/01/25 05:17:37;;;;;;;7.70;5.40;;;1.40;99.90;;;;;;5097123;28;20211;-76
2021/01/25 05:20:08;;;;;;;8.23;6.43;;;1.50;99.90;;;;;;5096878;28;20446;-86
2021/01/25 05:22:38;;;;;;;10.20;5.70;;;1.50;99.90;;;;;;5097443;28;20233;-76
2021/01/25 05:25:08;;;;;;;9.27;5.97;;;1.50;99.90;;;;;;5097252;28;20203;-77
2021/01/25 05:27:34;;;;;;;8.52;6.25;;;1.50;99.90;;;;;;5097153;28;20207;-76
2021/01/25 05:30:09;;;;;;;9.27;5.50;;;1.40;99.90;;;;;;5097290;28;20574;-76
2021/01/25 05:32:45;;;;;;;8.63;5.40;;;1.50;99.90;;;;;;5097125;28;20214;-76
2021/01/25 05:35:14;;;;;;;10.87;6.20;;;2.00;99.90;;;;;;5096758;28;20429;-76
2021/01/25 05:37:42;;;;;;;9.80;6.75;;;1.60;99.90;;;;;;5097100;28;20447;-76
2021/01/25 05:40:14;;;;;;;9.67;7.07;;;1.60;99.90;;;;;;5096678;28;20294;-77
2021/01/25 05:42:42;;;;;;;10.05;6.28;;;1.70;99.90;;;;;;5096473;28;20446;-76
2021/01/25 05:45:10;;;;;;;10.43;6.47;;;1.60;99.90;;;;;;5097227;28;20207;-77
2021/01/25 05:47:47;;;;;;;10.23;6.38;;;1.70;99.90;;;;;;5096892;28;20443;-76
2021/01/25 05:50:32;;;;;;;10.53;5.63;;;1.70;99.90;;;;;;5097405;28;20569;-76
2021/01/25 05:53:00;;;;;;;9.03;6.27;;;1.70;99.90;;;;;;5097051;28;20464;-76
2021/01/25 05:55:27;;;;;;;8.65;6.40;;;1.70;99.90;;;;;;5095841;28;20480;-76
2021/01/25 05:57:53;;;;;;;10.67;6.50;;;1.60;99.90;;;;;;5097121;28;20223;-76
2021/01/25 06:00:21;;;;;;;9.20;7.17;;;1.70;99.90;;;;;;5096145;28;20438;-76
2021/01/25 06:02:49;;;;;;;9.70;6.00;;;1.70;99.90;;;;;;5096835;28;20484;-76
2021/01/25 06:05:26;;;;;;;9.63;6.80;;;1.70;99.90;;;;;;5096560;28;20285;-76
2021/01/25 06:08:07;;;;;;;11.20;7.05;;;1.60;99.90;;;;;;5097052;28;20451;-76
2021/01/25 06:10:42;;;;;;;8.65;6.80;;;1.60;99.90;;;;;;5097436;28;20203;-76
2021/01/25 06:13:17;;;;;;;8.43;7.28;;;1.60;99.90;;;;;;5096800;28;20191;-82
2021/01/25 06:15:47;;;;;;;11.90;7.22;;;1.50;99.90;;;;;;5096962;28;20202;-77
2021/01/25 06:18:15;;;;;;;10.15;8.20;;;1.50;99.90;;;;;;5096081;28;20230;-77
2021/01/25 06:20:42;;;;;;;12.77;8.20;;;1.50;99.90;;;;;;5096276;28;20209;-76
2021/01/25 06:23:10;;;;;;;9.93;6.97;;;1.60;99.90;;;;;;5096494;28;20230;-83
2021/01/25 06:25:37;;;;;;;14.05;7.47;;;1.60;99.90;;;;;;5096210;28;20298;-76
2021/01/25 06:28:05;;;;;;;14.68;8.95;;;1.60;99.90;;;;;;5095913;28;20260;-76
2021/01/25 06:30:31;;;;;;;11.82;7.63;;;1.50;99.90;;;;;;5096128;28;20242;-76
2021/01/25 06:32:59;;;;;;;9.27;6.37;;;1.50;99.90;;;;;;5096170;28;20196;-77
2021/01/25 06:35:29;;;;;;;9.98;7.55;;;1.50;99.90;;;;;;5095949;28;20461;-77
2021/01/25 06:37:58;;;;;;;14.23;8.23;;;1.50;99.90;;;;;;5096168;28;20252;-76
2021/01/25 06:40:28;;;;;;;13.32;8.68;;;1.50;99.90;;;;;;5095422;28;20202;-76
2021/01/25 06:42:55;;;;;;;12.75;9.02;;;1.80;99.90;;;;;;5083980;28;20205;-76
2021/01/25 06:45:24;;;;;;;10.80;8.60;;;1.60;99.90;;;;;;5075550;28;20200;-76
2021/01/25 06:47:51;;;;;;;12.93;8.68;;;1.60;99.90;;;;;;5075588;28;20215;-76
2021/01/25 06:50:19;;;;;;;10.07;7.97;;;1.70;99.90;;;;;;5074837;28;20204;-76
2021/01/25 06:52:50;;;;;;;13.43;8.93;;;1.70;99.90;;;;;;5094632;28;20232;-76
2021/01/25 06:55:17;;;;;;;11.27;7.60;;;1.80;99.90;;;;;;5094192;28;20965;-76
2021/01/25 06:57:47;;;;;;;16.07;9.27;;;1.80;99.90;;;;;;5094864;28;20472;-76
2021/01/25 07:00:14;;;;;;;15.35;9.52;;;1.70;99.90;;;;;;5089478;28;20792;-76
2021/01/25 07:02:55;;;;;;;13.55;8.90;;;1.70;99.90;;;;;;5092521;28;20337;-76
2021/01/25 07:05:25;;;;;;;15.32;9.75;;;1.60;99.90;;;;;;5093703;28;20634;-76
2021/01/25 07:07:51;;;;;;;11.10;8.10;;;1.60;99.90;;;;;;5095152;28;20248;-76
2021/01/25 07:10:20;;;;;;;14.27;9.32;;;1.60;99.90;;;;;;5093719;28;20292;-76
2021/01/25 07:12:47;;;;;;;13.77;10.57;;;1.60;99.90;;;;;;5094698;28;20209;-76
2021/01/25 07:15:15;;;;;;;22.10;10.60;;;1.60;99.90;;;;;;5093743;28;20207;-76
2021/01/25 07:17:42;;;;;;;16.63;11.65;;;1.50;99.90;;;;;;5093875;28;20223;-76
2021/01/25 07:20:10;;;;;;;22.13;11.30;;;1.50;99.90;;;;;;5093570;28;20255;-80
2021/01/25 07:22:37;;;;;;;13.43;9.48;;;1.40;99.90;;;;;;5093958;28;20482;-80
2021/01/25 07:25:05;;;;;;;14.95;11.90;;;1.50;99.90;;;;;;5095339;28;20538;-78
2021/01/25 07:27:35;;;;;;;14.98;11.30;;;1.50;99.90;;;;;;5094632;28;20196;-78
2021/01/25 07:30:04;;;;;;;16.83;11.15;;;1.50;99.90;;;;;;5095173;28;20245;-78
2021/01/25 07:32:31;;;;;;;14.75;10.00;;;1.60;99.90;;;;;;5094363;28;20196;-78
2021/01/25 07:34:57;;;;;;;17.35;10.57;;;1.60;99.90;;;;;;5094738;28;20200;-78
2021/01/25 07:37:24;;;;;;;15.52;12.13;;;1.50;99.90;;;;;;5092962;28;20447;-76
2021/01/25 07:39:50;;;;;;;13.98;10.27;;;1.50;99.90;;;;;;5094647;28;20273;-77
2021/01/25 07:42:17;;;;;;;13.32;9.75;;;1.70;99.90;;;;;;5092952;28;20292;-77
2021/01/25 07:44:44;;;;;;;17.08;12.20;;;1.70;99.90;;;;;;5080645;28;20213;-76
2021/01/25 07:47:11;;;;;;;12.70;9.13;;;1.80;99.90;;;;;;5076127;28;20207;-88
2021/01/25 07:49:38;;;;;;;14.32;9.60;;;1.80;99.90;;;;;;5078087;28;20450;-77
2021/01/25 07:52:15;;;;;;;14.63;10.63;;;1.90;99.90;;;;;;5094626;28;20207;-77
2021/01/25 07:54:42;;;;;;;12.60;10.07;;;1.90;99.90;;;;;;5094344;28;20870;-77
2021/01/25 07:57:13;;;;;;;16.47;11.10;;;1.90;99.90;;;;;;5077686;28;20458;-77
2021/01/25 07:59:40;;;;;;;13.98;10.10;;;1.90;99.90;;;;;;5074335;28;20474;-77
2021/01/25 08:02:12;;;;;;;14.45;10.95;;;1.90;99.90;;;;;;5091582;28;20538;-77
2021/01/25 08:04:43;;;;;;;12.32;10.90;;;1.90;99.90;;;;;;5092160;28;20952;-84
2021/01/25 08:07:15;;;;;;;14.73;10.00;;;2.00;99.90;;;;;;5089841;28;20203;-77
2021/01/25 08:09:44;;;;;;;12.80;9.47;;;2.00;99.90;;;;;;5092956;28;20207;-78
2021/01/25 08:12:12;;;;;;;17.57;11.57;;;2.10;99.90;;;;;;5091782;28;20446;-83
2021/01/25 08:14:46;;;;;;;11.77;9.20;;;2.00;99.90;;;;;;5083411;28;20466;-77
2021/01/25 08:17:20;;;;;;;13.73;10.23;;;2.00;99.90;;;;;;5076338;28;20200;-81
2021/01/25 08:19:54;;;;;;;16.50;9.93;;;2.20;99.90;;;;;;5088004;28;20505;-78
2021/01/25 08:22:27;;;;;;;12.60;10.60;;;2.10;99.90;;;;;;5092985;28;20445;-83
2021/01/25 08:24:55;;;;;;;16.25;10.75;;;2.20;99.90;;;;;;5085686;28;20674;-77
2021/01/25 08:27:25;;;;;;;13.25;9.00;;;2.30;99.90;;;;;;5080557;28;20196;-78
2021/01/25 08:30:05;;;;;;;17.07;11.40;;;2.30;99.90;;;;;;5093709;28;20199;-76
2021/01/25 08:32:42;;;;;;;19.13;11.15;;;2.30;99.90;;;;;;5074357;28;20474;-79
2021/01/25 08:35:10;;;;;;;13.20;10.10;;;2.30;99.90;;;;;;5088032;28;20192;-77
2021/01/25 08:37:37;;;;;;;11.80;10.00;;;2.30;99.90;;;;;;5092563;28;20577;-77
2021/01/25 08:40:15;;;;;;;14.33;9.80;;;2.30;99.90;;;;;;5093891;28;20576;-77
2021/01/25 08:42:47;;;;;;;11.60;9.33;;;2.40;99.90;;;;;;5095614;28;20477;-77
2021/01/25 08:45:26;;;;;;;12.33;10.20;;;2.60;99.90;;;;;;5086122;28;20507;-80
2021/01/25 08:48:06;;;;;;;15.50;9.40;;;2.60;99.90;;;;;;5089345;28;20778;-77
2021/01/25 08:50:36;;;;;;;15.90;10.10;;;2.70;99.90;;;;;;5087213;28;20458;-78
2021/01/25 08:53:05;;;;;;;15.90;11.23;;;2.80;99.90;;;;;;5087197;28;20786;-77
2021/01/25 08:55:39;;;;;;;11.30;9.00;;;3.00;99.90;;;;;;5090376;28;20513;-82
2021/01/25 08:58:16;;;;;;;13.95;9.95;;;3.20;99.90;;;;;;5079226;28;20480;-79
2021/01/25 09:00:44;;;;;;;13.23;8.90;;;3.30;99.90;;;;;;5090705;28;20192;-77
2021/01/25 09:03:12;;;;;;;12.03;8.43;;;3.50;99.90;;;;;;5081369;28;20491;-77
2021/01/25 09:05:40;;;;;;;16.00;11.47;;;3.70;99.90;;;;;;5084314;28;20465;-78
2021/01/25 09:08:07;;;;;;;10.30;8.70;;;3.70;99.90;;;;;;5088317;28;20560;-77
2021/01/25 09:10:33;;;;;;;11.80;9.53;;;3.70;99.90;;;;;;5086495;28;20450;-77
2021/01/25 09:13:00;;;;;;;12.93;9.90;;;3.80;99.90;;;;;;5087486;28;20443;-77
2021/01/25 09:15:26;;;;;;;14.87;10.17;;;3.90;99.90;;;;;;5091101;28;20975;-78
2021/01/25 09:17:54;;;;;;;10.17;8.40;;;4.00;99.90;;;;;;5091158;28;20450;-77
2021/01/25 09:20:21;;;;;;;12.03;9.10;;;4.00;99.90;;;;;;5090248;28;20531;-78
2021/01/25 09:22:47;;;;;;;13.47;9.00;;;4.00;99.90;;;;;;5091994;28;20544;-77
2021/01/25 09:25:15;;;;;;;13.40;9.43;;;4.10;99.90;;;;;;5092078;28;20855;-85
2021/01/25 09:27:43;;;;;;;15.00;10.13;;;4.20;99.90;;;;;;5089570;28;20454;-78
2021/01/25 09:30:11;;;;;;;10.63;8.73;;;4.30;99.90;;;;;;5092446;28;20933;-78
2021/01/25 09:32:37;;;;;;;10.50;7.90;;;4.40;99.90;;;;;;5081412;28;20870;-78
2021/01/25 09:35:07;;;;;;;13.10;8.40;;;4.50;99.90;;;;;;5096771;28;20470;-77
2021/01/25 09:37:34;;;;;;;9.27;8.10;;;4.60;99.90;;;;;;5093102;28;20881;-77
2021/01/25 09:40:00;;;;;;;8.27;6.37;;;4.70;99.90;;;;;;5091928;28;20530;-78
2021/01/25 09:42:26;;;;;;;11.20;6.60;;;4.70;99.90;;;;;;5084334;28;20553;-79
2021/01/25 09:44:56;;;;;;;8.33;7.20;;;4.70;99.90;;;;;;5085273;28;20828;-77
2021/01/25 09:47:22;;;;;;;11.50;6.60;;;4.80;99.90;;;;;;5077517;28;20468;-78
2021/01/25 09:49:49;;;;;;;13.83;7.90;;;4.90;99.90;;;;;;5093723;28;20471;-77
2021/01/25 09:52:16;;;;;;;12.30;7.50;;;5.00;99.90;;;;;;5092357;28;20528;-80
2021/01/25 09:54:43;;;;;;;11.80;6.93;;;4.90;99.90;;;;;;5093544;28;20539;-78
2021/01/25 09:57:09;;;;;;;9.70;7.17;;;5.00;99.90;;;;;;5094455;28;20449;-78
2021/01/25 09:59:36;;;;;;;11.53;7.33;;;5.00;99.90;;;;;;5094542;28;20704;-78
2021/01/25 10:02:02;;;;;;;10.63;7.87;;;5.20;99.90;;;;;;5095101;28;20448;-78
2021/01/25 10:04:29;;;;;;;10.90;6.83;;;5.20;99.90;;;;;;5087967;28;21084;-76
2021/01/25 10:06:55;;;;;;;10.40;8.03;;;5.20;99.90;;;;;;5089842;28;20489;-77
2021/01/25 10:09:22;;;;;;;11.07;8.57;;;5.20;99.90;;;;;;5094216;28;20933;-77
2021/01/25 10:11:49;;;;;;;11.90;7.57;;;5.00;99.90;;;;;;5083115;28;20491;-78
2021/01/25 10:14:16;;;;;;;10.50;7.50;;;5.00;99.90;;;;;;5092173;28;20923;-82
2021/01/25 10:16:42;;;;;;;13.80;7.33;;;5.00;99.90;;;;;;5094741;28;20492;-86
2021/01/25 10:19:08;;;;;;;10.33;7.80;;;5.10;99.90;;;;;;5092097;28;20919;-78
2021/01/25 10:21:35;;;;;;;10.23;7.33;;;5.20;99.90;;;;;;5078880;28;20458;-78
2021/01/25 10:24:01;;;;;;;10.90;7.87;;;5.20;99.90;;;;;;5083698;28;20454;-77
2021/01/25 10:26:28;;;;;;;9.17;7.57;;;5.20;99.90;;;;;;5094967;28;20528;-77
2021/01/25 10:28:55;;;;;;;10.07;7.50;;;5.50;99.90;;;;;;5095406;28;20785;-77
2021/01/25 10:31:21;;;;;;;9.87;7.10;;;5.80;99.90;;;;;;5095967;28;20528;-77
2021/01/25 10:33:48;;;;;;;8.73;7.00;;;6.10;99.90;;;;;;5095802;28;20541;-77
2021/01/25 10:36:15;;;;;;;9.80;7.87;;;6.30;99.90;;;;;;5094624;28;20829;-82
2021/01/25 10:38:42;;;;;;;10.73;7.10;;;6.50;99.90;;;;;;5095531;28;20592;-77
2021/01/25 10:41:08;;;;;;;9.47;6.40;;;7.00;99.90;;;;;;5095920;28;20525;-77
2021/01/25 10:43:36;;;;;;;7.63;5.37;;;7.50;99.90;;;;;;5094664;28;20465;-77
2021/01/25 10:46:02;;;;;;;7.70;5.20;;;8.00;99.90;;;;;;5088255;28;20451;-77
2021/01/25 10:48:28;;;;;;;6.50;5.10;;;8.10;99.90;;;;;;5074857;28;20935;-77
2021/01/25 10:50:56;;;;;;;5.70;4.90;;;7.50;99.90;;;;;;5075471;28;20807;-77
2021/01/25 10:53:25;;;;;;;6.20;5.10;;;8.00;99.90;;;;;;5074629;28;20931;-75
2021/01/25 10:55:52;;;;;;;8.20;5.97;;;8.00;99.90;;;;;;5074938;28;20479;-77
2021/01/25 10:58:18;;;;;;;7.07;5.33;;;8.20;99.90;;;;;;5074205;28;20532;-83
2021/01/25 11:00:45;;;;;;;8.93;6.37;;;8.30;99.90;;;;;;5081272;28;20775;-77
2021/01/25 11:03:12;;;;;;;7.50;5.50;;;8.40;99.90;;;;;;5094657;28;20499;-76
2021/01/25 11:05:38;;;;;;;7.77;5.80;;;8.50;99.90;;;;;;5088960;28;20667;-77
2021/01/25 11:08:05;;;;;;;8.00;6.03;;;8.70;99.90;;;;;;5083411;28;20963;-77
2021/01/25 11:10:32;;;;;;;8.93;5.47;;;8.80;99.90;;;;;;5093758;28;20786;-77
2021/01/25 11:12:58;;;;;;;8.57;6.03;;;8.60;99.90;;;;;;5094246;28;20549;-77
2021/01/25 11:15:25;;;;;;;10.10;6.77;;;8.20;99.90;;;;;;5093870;28;20505;-76
2021/01/25 11:17:53;;;;;;;8.47;6.37;;;8.30;99.90;;;;;;5094416;28;20457;-76
2021/01/25 11:20:19;;;;;;;7.80;6.00;;;7.90;99.90;;;;;;5081585;28;20481;-85
2021/01/25 11:22:46;;;;;;;9.13;5.70;;;7.50;99.90;;;;;;5084980;28;20797;-77
2021/01/25 11:25:14;;;;;;;8.03;5.57;;;7.70;99.90;;;;;;5093585;28;20472;-79
2021/01/25 11:27:40;;;;;;;9.93;6.30;;;7.90;99.90;;;;;;5080258;28;20451;-77
2021/01/25 11:30:08;;;;;;;7.10;5.20;;;8.10;99.90;;;;;;5085214;28;20462;-77
2021/01/25 11:32:34;;;;;;;10.20;5.50;;;8.30;99.90;;;;;;5091300;28;20862;-78
2021/01/25 11:35:02;;;;;;;6.20;5.50;;;8.70;99.90;;;;;;5089931;28;20461;-79
2021/01/25 11:37:28;;;;;;;8.07;6.17;;;8.80;99.90;;;;;;5089826;28;20454;-78
2021/01/25 11:39:55;;;;;;;13.07;7.13;;;9.40;99.90;;;;;;5084627;28;20503;-78
2021/01/25 11:42:21;;;;;;;8.10;5.50;;;10.90;99.90;;;;;;5086341;28;20455;-83
2021/01/25 11:44:48;;;;;;;8.00;5.87;;;11.10;99.90;;;;;;5087233;28;20828;-77
2021/01/25 11:47:15;;;;;;;8.23;6.37;;;10.40;99.90;;;;;;5081159;28;20454;-78
2021/01/25 11:49:41;;;;;;;7.43;5.40;;;10.00;99.90;;;;;;5088316;28;20462;-77
2021/01/25 11:52:09;;;;;;;9.20;5.97;;;9.70;99.90;;;;;;5091133;28;20533;-79
2021/01/25 11:54:36;;;;;;;8.80;6.47;;;9.60;99.90;;;;;;5092158;28;20450;-77
2021/01/25 11:57:03;;;;;;;7.93;6.73;;;9.50;99.90;;;;;;5092855;28;20748;-80
2021/01/25 11:59:29;;;;;;;9.87;5.70;;;9.50;99.90;;;;;;5091724;28;20573;-76
2021/01/25 12:01:56;;;;;;;8.63;4.73;;;9.40;99.90;;;;;;5092962;28;20767;-78
2021/01/25 12:04:23;;;;;;;6.73;4.90;;;9.10;99.90;;;;;;5088757;28;20896;-78
2021/01/25 12:06:51;;;;;;;7.00;4.27;;;9.10;99.90;;;;;;5083934;28;20470;-78
2021/01/25 12:09:19;;;;;;;6.57;5.10;;;9.00;99.90;;;;;;5087337;28;20458;-86
2021/01/25 12:11:45;;;;;;;8.93;5.80;;;8.90;99.90;;;;;;5092511;28;20446;-78
2021/01/25 12:14:12;;;;;;;11.73;7.53;;;8.60;99.90;;;;;;5091907;28;20446;-78
2021/01/25 12:16:38;;;;;;;14.37;7.03;;;8.60;99.90;;;;;;5088930;28;20438;-78
2021/01/25 12:19:05;;;;;;;6.30;4.87;;;8.50;99.90;;;;;;5087599;28;20486;-82
2021/01/25 12:21:31;;;;;;;8.63;6.30;;;8.30;99.90;;;;;;5085972;28;20446;-77
2021/01/25 12:23:57;;;;;;;10.00;5.80;;;8.20;99.90;;;;;;5092184;28;21010;-79
2021/01/25 12:26:25;;;;;;;11.60;6.60;;;8.10;99.90;;;;;;5090760;28;20456;-78
2021/01/25 12:28:51;;;;;;;8.17;5.83;;;8.50;99.90;;;;;;5088929;28;20497;-78
2021/01/25 12:31:18;;;;;;;8.90;5.80;;;8.50;99.90;;;;;;5089472;28;20464;-85
2021/01/25 12:33:44;;;;;;;11.33;6.40;;;8.60;99.90;;;;;;5090543;28;20459;-77
2021/01/25 12:36:11;;;;;;;9.80;7.23;;;8.90;99.90;;;;;;5092871;28;20446;-77
2021/01/25 12:38:41;;;;;;;8.20;5.67;;;9.00;99.90;;;;;;5091628;28;20616;-77
2021/01/25 12:41:07;;;;;;;8.83;5.77;;;8.90;99.90;;;;;;5091343;28;20468;-78
2021/01/25 12:43:34;;;;;;;9.87;6.73;;;8.90;99.90;;;;;;5091641;28;20450;-78
2021/01/25 12:46:01;;;;;;;16.20;7.50;;;8.60;99.90;;;;;;5088391;28;20457;-82
2021/01/25 12:48:27;;;;;;;10.40;7.27;;;8.70;99.90;;;;;;5089285;28;20538;-78
2021/01/25 12:50:54;;;;;;;13.17;8.30;;;8.70;99.90;;;;;;5092554;28;20443;-78
2021/01/25 12:53:20;;;;;;;10.00;7.40;;;8.90;99.90;;;;;;5091804;28;20495;-85